sensor_id;sensor_type;location;lat;lon;timestamp;pressure;altitude;pressure_sealevel;temperature;humidity
27210;BME280;14721;42.668;23.386;2023-04-15T00:00:42;94504.53;;;7.25;91.95
27210;BME280;14721;42.668;23.386;2023-04-15T00:03:07;94508.47;;;7.19;90.76
27210;BME280;14721;42.668;23.386;2023-04-15T00:05:33;94516.78;;;7.15;91.21
27210;BME280;14721;42.668;23.386;2023-04-15T00:07:59;94500.97;;;7.13;90.56
27210;BME280;14721;42.668;23.386;2023-04-15T00:10:26;94519.66;;;7.12;89.40
27210;BME280;14721;42.668;23.386;2023-04-15T00:12:52;94528.59;;;7.11;88.24
27210;BME280;14721;42.668;23.386;2023-04-15T00:15:17;94546.47;;;7.32;88.90
27210;BME280;14721;42.668;23.386;2023-04-15T00:17:43;94551.69;;;7.34;87.92
27210;BME280;14721;42.668;23.386;2023-04-15T00:20:09;94547.03;;;7.48;88.33
27210;BME280;14721;42.668;23.386;2023-04-15T00:22:35;94547.56;;;7.64;89.66
27210;BME280;14721;42.668;23.386;2023-04-15T00:25:01;94540.22;;;7.68;89.94
27210;BME280;14721;42.668;23.386;2023-04-15T00:27:26;94520.09;;;7.53;89.89
27210;BME280;14721;42.668;23.386;2023-04-15T00:29:52;94531.28;;;7.69;91.28
27210;BME280;14721;42.668;23.386;2023-04-15T00:32:18;94536.09;;;7.64;90.58
27210;BME280;14721;42.668;23.386;2023-04-15T00:34:44;94532.41;;;7.54;90.65
27210;BME280;14721;42.668;23.386;2023-04-15T00:37:10;94530.28;;;7.59;91.87
27210;BME280;14721;42.668;23.386;2023-04-15T00:39:35;94523.63;;;7.64;93.30
27210;BME280;14721;42.668;23.386;2023-04-15T00:42:03;94521.63;;;7.68;92.63
27210;BME280;14721;42.668;23.386;2023-04-15T00:44:29;94523.84;;;7.50;90.36
27210;BME280;14721;42.668;23.386;2023-04-15T00:46:54;94545.38;;;7.58;90.27
27210;BME280;14721;42.668;23.386;2023-04-15T00:49:21;94547.38;;;7.44;91.95
27210;BME280;14721;42.668;23.386;2023-04-15T00:51:48;94549.63;;;7.37;94.57
27210;BME280;14721;42.668;23.386;2023-04-15T00:54:13;94556.03;;;7.35;95.55
27210;BME280;14721;42.668;23.386;2023-04-15T00:56:39;94550.47;;;7.38;95.66
27210;BME280;14721;42.668;23.386;2023-04-15T00:59:05;94548.25;;;7.55;96.65
27210;BME280;14721;42.668;23.386;2023-04-15T01:01:34;94545.47;;;7.57;92.57
27210;BME280;14721;42.668;23.386;2023-04-15T01:03:59;94544.53;;;7.58;87.60
27210;BME280;14721;42.668;23.386;2023-04-15T01:06:25;94552.44;;;7.70;86.01
27210;BME280;14721;42.668;23.386;2023-04-15T01:08:56;94565.53;;;7.50;85.73
27210;BME280;14721;42.668;23.386;2023-04-15T01:11:22;94554.19;;;7.59;85.62
27210;BME280;14721;42.668;23.386;2023-04-15T01:13:50;94544.13;;;7.51;88.00
27210;BME280;14721;42.668;23.386;2023-04-15T01:16:17;94545.06;;;7.39;88.27
27210;BME280;14721;42.668;23.386;2023-04-15T01:18:43;94540.72;;;7.38;88.09
27210;BME280;14721;42.668;23.386;2023-04-15T01:21:09;94532.66;;;7.51;89.28
27210;BME280;14721;42.668;23.386;2023-04-15T01:23:36;94534.03;;;7.56;89.13
27210;BME280;14721;42.668;23.386;2023-04-15T01:26:03;94531.47;;;7.55;88.32
27210;BME280;14721;42.668;23.386;2023-04-15T01:28:32;94533.91;;;7.58;88.94
27210;BME280;14721;42.668;23.386;2023-04-15T01:31:18;94531.19;;;7.47;88.83
27210;BME280;14721;42.668;23.386;2023-04-15T01:33:45;94541.53;;;7.39;88.59
27210;BME280;14721;42.668;23.386;2023-04-15T01:36:11;94527.06;;;7.19;87.88
27210;BME280;14721;42.668;23.386;2023-04-15T01:38:37;94537.25;;;7.25;84.58
27210;BME280;14721;42.668;23.386;2023-04-15T01:41:03;94538.28;;;7.35;84.31
27210;BME280;14721;42.668;23.386;2023-04-15T01:43:29;94545.06;;;7.39;83.97
27210;BME280;14721;42.668;23.386;2023-04-15T01:45:54;94538.31;;;7.46;84.48
27210;BME280;14721;42.668;23.386;2023-04-15T01:48:21;94539.06;;;7.48;85.58
27210;BME280;14721;42.668;23.386;2023-04-15T01:50:47;94552.03;;;7.29;86.16
27210;BME280;14721;42.668;23.386;2023-04-15T01:53:12;94548.16;;;7.10;87.53
27210;BME280;14721;42.668;23.386;2023-04-15T01:55:38;94562.28;;;7.10;88.16
27210;BME280;14721;42.668;23.386;2023-04-15T01:58:03;94562.84;;;7.03;87.87
27210;BME280;14721;42.668;23.386;2023-04-15T02:00:29;94565.34;;;6.81;85.79
27210;BME280;14721;42.668;23.386;2023-04-15T02:02:56;94561.72;;;6.82;86.12
27210;BME280;14721;42.668;23.386;2023-04-15T02:05:23;94571.50;;;6.81;87.64
27210;BME280;14721;42.668;23.386;2023-04-15T02:07:49;94574.16;;;6.81;87.31
27210;BME280;14721;42.668;23.386;2023-04-15T02:10:15;94563.47;;;6.70;88.06
27210;BME280;14721;42.668;23.386;2023-04-15T02:12:41;94566.44;;;6.53;87.05
27210;BME280;14721;42.668;23.386;2023-04-15T02:15:07;94559.44;;;6.52;87.67
27210;BME280;14721;42.668;23.386;2023-04-15T02:17:34;94554.78;;;6.56;87.78
27210;BME280;14721;42.668;23.386;2023-04-15T02:20:00;94557.66;;;6.53;87.15
27210;BME280;14721;42.668;23.386;2023-04-15T02:22:25;94551.75;;;6.73;85.61
27210;BME280;14721;42.668;23.386;2023-04-15T02:24:52;94546.31;;;6.87;85.25
27210;BME280;14721;42.668;23.386;2023-04-15T02:27:17;94549.28;;;6.95;84.31
27210;BME280;14721;42.668;23.386;2023-04-15T02:29:44;94546.63;;;6.95;82.95
27210;BME280;14721;42.668;23.386;2023-04-15T02:32:11;94551.53;;;6.88;82.76
27210;BME280;14721;42.668;23.386;2023-04-15T02:34:38;94540.91;;;6.76;82.88
27210;BME280;14721;42.668;23.386;2023-04-15T02:37:10;94536.03;;;6.82;85.54
27210;BME280;14721;42.668;23.386;2023-04-15T02:39:36;94532.63;;;6.80;87.22
27210;BME280;14721;42.668;23.386;2023-04-15T02:42:02;94539.53;;;6.83;87.73
27210;BME280;14721;42.668;23.386;2023-04-15T02:44:29;94534.47;;;6.80;87.57
27210;BME280;14721;42.668;23.386;2023-04-15T02:46:56;94563.53;;;6.81;86.54
27210;BME280;14721;42.668;23.386;2023-04-15T02:49:23;94559.94;;;6.70;87.21
27210;BME280;14721;42.668;23.386;2023-04-15T02:51:49;94553.38;;;6.75;88.86
27210;BME280;14721;42.668;23.386;2023-04-15T02:54:19;94564.44;;;6.57;89.01
27210;BME280;14721;42.668;23.386;2023-04-15T02:56:47;94560.63;;;6.48;88.47
27210;BME280;14721;42.668;23.386;2023-04-15T02:59:13;94571.47;;;6.45;88.73
27210;BME280;14721;42.668;23.386;2023-04-15T03:01:38;94586.13;;;6.26;89.93
27210;BME280;14721;42.668;23.386;2023-04-15T03:04:04;94570.28;;;5.87;89.27
27210;BME280;14721;42.668;23.386;2023-04-15T03:06:29;94569.63;;;5.83;88.86
27210;BME280;14721;42.668;23.386;2023-04-15T03:08:55;94573.66;;;5.89;87.55
27210;BME280;14721;42.668;23.386;2023-04-15T03:11:21;94576.72;;;5.82;87.37
27210;BME280;14721;42.668;23.386;2023-04-15T03:13:46;94576.69;;;5.43;84.93
27210;BME280;14721;42.668;23.386;2023-04-15T03:16:12;94578.13;;;5.49;87.54
27210;BME280;14721;42.668;23.386;2023-04-15T03:18:38;94571.41;;;5.43;88.47
27210;BME280;14721;42.668;23.386;2023-04-15T03:21:03;94578.66;;;5.27;86.94
27210;BME280;14721;42.668;23.386;2023-04-15T03:23:30;94598.81;;;5.30;87.77
27210;BME280;14721;42.668;23.386;2023-04-15T03:25:56;94596.00;;;5.45;88.83
27210;BME280;14721;42.668;23.386;2023-04-15T03:28:23;94589.81;;;5.32;89.60
27210;BME280;14721;42.668;23.386;2023-04-15T03:30:48;94586.63;;;5.27;90.00
27210;BME280;14721;42.668;23.386;2023-04-15T03:33:14;94596.72;;;5.35;90.78
27210;BME280;14721;42.668;23.386;2023-04-15T03:35:40;94603.91;;;5.33;91.34
27210;BME280;14721;42.668;23.386;2023-04-15T03:38:05;94590.56;;;5.34;92.62
27210;BME280;14721;42.668;23.386;2023-04-15T03:40:31;94606.03;;;5.40;92.18
27210;BME280;14721;42.668;23.386;2023-04-15T03:42:56;94610.44;;;5.54;91.67
27210;BME280;14721;42.668;23.386;2023-04-15T03:45:22;94607.78;;;5.54;92.59
27210;BME280;14721;42.668;23.386;2023-04-15T03:47:47;94622.34;;;5.61;93.02
27210;BME280;14721;42.668;23.386;2023-04-15T03:50:14;94618.78;;;5.74;93.37
27210;BME280;14721;42.668;23.386;2023-04-15T03:52:40;94607.41;;;5.99;93.21
27210;BME280;14721;42.668;23.386;2023-04-15T03:55:05;94615.38;;;6.12;93.40
27210;BME280;14721;42.668;23.386;2023-04-15T03:57:33;94623.44;;;6.10;92.87
27210;BME280;14721;42.668;23.386;2023-04-15T04:00:04;94626.06;;;5.98;92.93
27210;BME280;14721;42.668;23.386;2023-04-15T04:02:30;94624.28;;;6.11;93.10
27210;BME280;14721;42.668;23.386;2023-04-15T04:04:55;94621.03;;;6.20;93.32
27210;BME280;14721;42.668;23.386;2023-04-15T04:07:22;94626.63;;;6.15;93.67
27210;BME280;14721;42.668;23.386;2023-04-15T04:09:48;94631.41;;;6.23;93.59
27210;BME280;14721;42.668;23.386;2023-04-15T04:12:14;94631.31;;;6.24;93.29
27210;BME280;14721;42.668;23.386;2023-04-15T04:17:23;94622.84;;;6.32;93.68
27210;BME280;14721;42.668;23.386;2023-04-15T04:19:48;94612.41;;;6.41;93.98
27210;BME280;14721;42.668;23.386;2023-04-15T04:22:14;94626.94;;;6.61;93.64
27210;BME280;14721;42.668;23.386;2023-04-15T04:24:39;94631.19;;;6.76;93.43
27210;BME280;14721;42.668;23.386;2023-04-15T04:27:05;94631.81;;;6.92;92.86
27210;BME280;14721;42.668;23.386;2023-04-15T04:29:30;94626.88;;;7.23;91.81
27210;BME280;14721;42.668;23.386;2023-04-15T04:31:56;94632.19;;;7.47;91.10
27210;BME280;14721;42.668;23.386;2023-04-15T04:34:21;94631.06;;;7.86;90.13
27210;BME280;14721;42.668;23.386;2023-04-15T04:36:47;94633.31;;;8.03;87.67
27210;BME280;14721;42.668;23.386;2023-04-15T04:39:14;94631.03;;;8.33;86.26
27210;BME280;14721;42.668;23.386;2023-04-15T04:41:40;94627.94;;;8.72;84.41
27210;BME280;14721;42.668;23.386;2023-04-15T04:44:07;94634.38;;;9.13;83.01
27210;BME280;14721;42.668;23.386;2023-04-15T04:46:32;94633.59;;;9.44;81.08
27210;BME280;14721;42.668;23.386;2023-04-15T04:48:58;94636.31;;;9.76;80.69
27210;BME280;14721;42.668;23.386;2023-04-15T04:51:23;94645.59;;;10.15;77.70
27210;BME280;14721;42.668;23.386;2023-04-15T04:53:49;94642.47;;;10.92;75.06
27210;BME280;14721;42.668;23.386;2023-04-15T04:56:15;94651.88;;;11.47;70.38
27210;BME280;14721;42.668;23.386;2023-04-15T04:58:40;94649.94;;;12.07;68.56
27210;BME280;14721;42.668;23.386;2023-04-15T05:01:06;94644.06;;;12.51;64.84
27210;BME280;14721;42.668;23.386;2023-04-15T05:03:32;94653.50;;;12.65;63.01
27210;BME280;14721;42.668;23.386;2023-04-15T05:05:57;94657.97;;;13.58;61.71
27210;BME280;14721;42.668;23.386;2023-04-15T05:08:23;94666.72;;;14.59;57.36
27210;BME280;14721;42.668;23.386;2023-04-15T05:10:48;94664.44;;;15.50;54.50
27210;BME280;14721;42.668;23.386;2023-04-15T05:13:17;94668.34;;;16.31;51.25
27210;BME280;14721;42.668;23.386;2023-04-15T05:15:42;94669.19;;;16.97;49.08
27210;BME280;14721;42.668;23.386;2023-04-15T05:18:09;94670.34;;;17.51;46.70
27210;BME280;14721;42.668;23.386;2023-04-15T05:20:34;94667.78;;;17.81;45.15
27210;BME280;14721;42.668;23.386;2023-04-15T05:23:00;94665.38;;;18.33;43.50
27210;BME280;14721;42.668;23.386;2023-04-15T05:25:25;94656.88;;;18.52;42.83
27210;BME280;14721;42.668;23.386;2023-04-15T05:27:51;94672.97;;;18.37;42.92
27210;BME280;14721;42.668;23.386;2023-04-15T05:30:17;94665.75;;;17.83;42.89
27210;BME280;14721;42.668;23.386;2023-04-15T05:32:42;94669.66;;;17.65;42.90
27210;BME280;14721;42.668;23.386;2023-04-15T05:35:08;94667.59;;;17.91;42.52
27210;BME280;14721;42.668;23.386;2023-04-15T05:37:33;94665.97;;;18.12;41.00
27210;BME280;14721;42.668;23.386;2023-04-15T05:39:59;94662.84;;;18.39;41.12
27210;BME280;14721;42.668;23.386;2023-04-15T05:42:25;94667.25;;;18.63;41.13
27210;BME280;14721;42.668;23.386;2023-04-15T05:44:50;94661.72;;;19.32;38.06
27210;BME280;14721;42.668;23.386;2023-04-15T05:47:16;94664.31;;;19.03;38.88
27210;BME280;14721;42.668;23.386;2023-04-15T05:49:41;94663.06;;;19.14;39.48
27210;BME280;14721;42.668;23.386;2023-04-15T05:52:07;94662.44;;;19.49;37.39
27210;BME280;14721;42.668;23.386;2023-04-15T05:54:32;94667.81;;;19.71;36.85
27210;BME280;14721;42.668;23.386;2023-04-15T05:56:58;94665.56;;;19.75;38.23
27210;BME280;14721;42.668;23.386;2023-04-15T05:59:23;94682.25;;;20.01;38.08
27210;BME280;14721;42.668;23.386;2023-04-15T06:01:49;94689.41;;;19.65;36.59
27210;BME280;14721;42.668;23.386;2023-04-15T06:04:18;94693.56;;;19.53;37.41
27210;BME280;14721;42.668;23.386;2023-04-15T06:06:47;94693.91;;;19.87;38.16
27210;BME280;14721;42.668;23.386;2023-04-15T06:09:18;94696.13;;;20.35;36.53
27210;BME280;14721;42.668;23.386;2023-04-15T06:11:44;94691.19;;;20.38;35.80
27210;BME280;14721;42.668;23.386;2023-04-15T06:14:09;94688.56;;;20.16;35.70
27210;BME280;14721;42.668;23.386;2023-04-15T06:16:35;94689.34;;;19.50;36.80
27210;BME280;14721;42.668;23.386;2023-04-15T06:19:03;94681.91;;;19.30;37.82
27210;BME280;14721;42.668;23.386;2023-04-15T06:21:29;94698.50;;;19.49;36.07
27210;BME280;14721;42.668;23.386;2023-04-15T06:23:56;94698.72;;;19.17;37.05
27210;BME280;14721;42.668;23.386;2023-04-15T06:26:21;94697.72;;;19.63;36.99
27210;BME280;14721;42.668;23.386;2023-04-15T06:28:46;94697.88;;;20.13;37.65
27210;BME280;14721;42.668;23.386;2023-04-15T06:31:12;94705.09;;;20.50;36.37
27210;BME280;14721;42.668;23.386;2023-04-15T06:33:38;94698.81;;;20.49;35.65
27210;BME280;14721;42.668;23.386;2023-04-15T06:36:04;94707.50;;;20.74;35.59
27210;BME280;14721;42.668;23.386;2023-04-15T06:38:30;94705.78;;;21.02;35.11
27210;BME280;14721;42.668;23.386;2023-04-15T06:40:55;94707.00;;;21.00;35.03
27210;BME280;14721;42.668;23.386;2023-04-15T06:43:20;94695.59;;;21.25;34.72
27210;BME280;14721;42.668;23.386;2023-04-15T06:45:46;94705.88;;;21.51;35.18
27210;BME280;14721;42.668;23.386;2023-04-15T06:48:11;94717.06;;;21.62;35.19
27210;BME280;14721;42.668;23.386;2023-04-15T06:50:38;94717.34;;;21.88;33.42
27210;BME280;14721;42.668;23.386;2023-04-15T06:53:06;94715.53;;;21.74;33.66
27210;BME280;14721;42.668;23.386;2023-04-15T06:55:32;94723.56;;;22.10;33.23
27210;BME280;14721;42.668;23.386;2023-04-15T06:57:58;94715.25;;;21.69;33.25
27210;BME280;14721;42.668;23.386;2023-04-15T07:00:24;94724.78;;;20.88;34.98
27210;BME280;14721;42.668;23.386;2023-04-15T07:02:50;94723.16;;;20.28;35.62
27210;BME280;14721;42.668;23.386;2023-04-15T07:05:15;94715.66;;;19.79;36.73
27210;BME280;14721;42.668;23.386;2023-04-15T07:07:41;94720.03;;;20.02;36.98
27210;BME280;14721;42.668;23.386;2023-04-15T07:10:07;94732.53;;;19.89;37.53
27210;BME280;14721;42.668;23.386;2023-04-15T07:12:33;94726.47;;;20.01;36.19
27210;BME280;14721;42.668;23.386;2023-04-15T07:15:00;94732.72;;;19.87;36.30
27210;BME280;14721;42.668;23.386;2023-04-15T07:17:25;94737.06;;;20.11;35.36
27210;BME280;14721;42.668;23.386;2023-04-15T07:19:51;94723.72;;;20.24;36.02
27210;BME280;14721;42.668;23.386;2023-04-15T07:22:16;94723.84;;;20.81;35.15
27210;BME280;14721;42.668;23.386;2023-04-15T07:24:42;94707.28;;;20.90;35.74
27210;BME280;14721;42.668;23.386;2023-04-15T07:27:08;94714.75;;;21.38;34.90
27210;BME280;14721;42.668;23.386;2023-04-15T07:29:33;94719.97;;;21.61;34.93
27210;BME280;14721;42.668;23.386;2023-04-15T07:31:58;94721.84;;;21.75;33.57
27210;BME280;14721;42.668;23.386;2023-04-15T07:34:24;94729.06;;;22.16;33.35
27210;BME280;14721;42.668;23.386;2023-04-15T07:36:50;94731.13;;;22.14;34.50
27210;BME280;14721;42.668;23.386;2023-04-15T07:39:17;94720.69;;;22.46;34.08
27210;BME280;14721;42.668;23.386;2023-04-15T07:41:42;94730.59;;;21.98;33.65
27210;BME280;14721;42.668;23.386;2023-04-15T07:44:08;94713.38;;;21.91;34.19
27210;BME280;14721;42.668;23.386;2023-04-15T07:46:33;94720.44;;;21.64;34.08
27210;BME280;14721;42.668;23.386;2023-04-15T07:48:59;94717.47;;;21.38;35.60
27210;BME280;14721;42.668;23.386;2023-04-15T07:51:25;94730.81;;;20.54;36.23
27210;BME280;14721;42.668;23.386;2023-04-15T07:53:50;94744.41;;;20.25;37.69
27210;BME280;14721;42.668;23.386;2023-04-15T07:56:16;94736.81;;;20.35;36.96
27210;BME280;14721;42.668;23.386;2023-04-15T07:58:41;94731.31;;;20.43;36.76
27210;BME280;14721;42.668;23.386;2023-04-15T08:01:07;94747.84;;;21.27;36.39
27210;BME280;14721;42.668;23.386;2023-04-15T08:03:33;94740.75;;;21.47;34.68
27210;BME280;14721;42.668;23.386;2023-04-15T08:05:59;94735.81;;;21.57;34.29
27210;BME280;14721;42.668;23.386;2023-04-15T08:08:24;94739.66;;;21.63;34.64
27210;BME280;14721;42.668;23.386;2023-04-15T08:10:50;94732.75;;;21.81;34.33
27210;BME280;14721;42.668;23.386;2023-04-15T08:13:16;94724.75;;;22.28;34.36
27210;BME280;14721;42.668;23.386;2023-04-15T08:15:42;94743.94;;;22.20;33.60
27210;BME280;14721;42.668;23.386;2023-04-15T08:18:07;94738.06;;;22.72;32.49
27210;BME280;14721;42.668;23.386;2023-04-15T08:20:33;94739.91;;;22.65;32.14
27210;BME280;14721;42.668;23.386;2023-04-15T08:22:58;94738.50;;;22.76;32.18
27210;BME280;14721;42.668;23.386;2023-04-15T08:25:24;94732.28;;;22.95;32.03
27210;BME280;14721;42.668;23.386;2023-04-15T08:27:49;94740.47;;;22.54;31.93
27210;BME280;14721;42.668;23.386;2023-04-15T08:30:15;94728.00;;;22.11;31.49
27210;BME280;14721;42.668;23.386;2023-04-15T08:32:42;94729.91;;;21.89;32.39
27210;BME280;14721;42.668;23.386;2023-04-15T08:35:12;94727.19;;;21.89;32.95
27210;BME280;14721;42.668;23.386;2023-04-15T08:37:37;94715.59;;;21.60;32.64
27210;BME280;14721;42.668;23.386;2023-04-15T08:40:03;94724.91;;;21.30;33.52
27210;BME280;14721;42.668;23.386;2023-04-15T08:42:36;94726.78;;;21.50;33.92
27210;BME280;14721;42.668;23.386;2023-04-15T08:45:08;94726.50;;;21.66;34.39
27210;BME280;14721;42.668;23.386;2023-04-15T08:47:36;94726.59;;;21.73;34.42
27210;BME280;14721;42.668;23.386;2023-04-15T08:50:08;94721.44;;;21.78;32.58
27210;BME280;14721;42.668;23.386;2023-04-15T08:52:35;94721.94;;;21.88;32.82
27210;BME280;14721;42.668;23.386;2023-04-15T08:55:01;94721.66;;;21.83;32.08
27210;BME280;14721;42.668;23.386;2023-04-15T08:57:28;94716.78;;;21.99;32.42
27210;BME280;14721;42.668;23.386;2023-04-15T08:59:56;94714.28;;;21.56;29.56
27210;BME280;14721;42.668;23.386;2023-04-15T09:02:25;94709.78;;;21.06;28.72
27210;BME280;14721;42.668;23.386;2023-04-15T09:04:52;94717.97;;;20.63;29.22
27210;BME280;14721;42.668;23.386;2023-04-15T09:07:17;94713.81;;;19.94;30.92
27210;BME280;14721;42.668;23.386;2023-04-15T09:09:43;94702.97;;;19.42;31.22
27210;BME280;14721;42.668;23.386;2023-04-15T09:12:09;94712.38;;;19.24;31.02
27210;BME280;14721;42.668;23.386;2023-04-15T09:14:35;94702.59;;;19.23;31.65
27210;BME280;14721;42.668;23.386;2023-04-15T09:17:03;94691.97;;;18.91;31.25
27210;BME280;14721;42.668;23.386;2023-04-15T09:19:29;94695.78;;;18.35;32.68
27210;BME280;14721;42.668;23.386;2023-04-15T09:21:57;94679.56;;;18.35;33.16
27210;BME280;14721;42.668;23.386;2023-04-15T09:24:23;94686.06;;;18.87;33.39
27210;BME280;14721;42.668;23.386;2023-04-15T09:26:53;94676.47;;;19.07;32.87
27210;BME280;14721;42.668;23.386;2023-04-15T09:29:23;94679.38;;;18.75;31.48
27210;BME280;14721;42.668;23.386;2023-04-15T09:31:49;94694.44;;;18.39;32.14
27210;BME280;14721;42.668;23.386;2023-04-15T09:34:18;94692.22;;;18.34;31.80
27210;BME280;14721;42.668;23.386;2023-04-15T09:39:13;94686.34;;;18.69;33.13
27210;BME280;14721;42.668;23.386;2023-04-15T09:41:39;94690.50;;;18.80;31.56
27210;BME280;14721;42.668;23.386;2023-04-15T09:44:05;94690.34;;;18.82;31.70
27210;BME280;14721;42.668;23.386;2023-04-15T09:46:44;94682.31;;;18.65;30.98
27210;BME280;14721;42.668;23.386;2023-04-15T09:49:11;94682.72;;;18.54;31.17
27210;BME280;14721;42.668;23.386;2023-04-15T09:51:37;94692.56;;;18.78;31.70
27210;BME280;14721;42.668;23.386;2023-04-15T09:54:04;94685.13;;;19.03;31.74
27210;BME280;14721;42.668;23.386;2023-04-15T09:56:37;94695.38;;;19.60;30.63
27210;BME280;14721;42.668;23.386;2023-04-15T09:59:08;94690.09;;;19.96;30.14
27210;BME280;14721;42.668;23.386;2023-04-15T10:01:34;94691.53;;;20.21;30.69
27210;BME280;14721;42.668;23.386;2023-04-15T10:04:04;94685.44;;;20.48;30.13
27210;BME280;14721;42.668;23.386;2023-04-15T10:06:30;94671.53;;;20.72;30.26
27210;BME280;14721;42.668;23.386;2023-04-15T10:08:57;94676.59;;;20.25;31.50
27210;BME280;14721;42.668;23.386;2023-04-15T10:11:23;94680.41;;;20.16;29.32
27210;BME280;14721;42.668;23.386;2023-04-15T10:13:50;94675.44;;;19.31;30.11
27210;BME280;14721;42.668;23.386;2023-04-15T10:16:20;94667.41;;;18.69;31.01
27210;BME280;14721;42.668;23.386;2023-04-15T10:18:52;94672.34;;;18.89;30.51
27210;BME280;14721;42.668;23.386;2023-04-15T10:21:19;94667.00;;;18.81;31.40
27210;BME280;14721;42.668;23.386;2023-04-15T10:23:47;94665.63;;;19.07;29.77
27210;BME280;14721;42.668;23.386;2023-04-15T10:26:12;94652.63;;;19.03;30.73
27210;BME280;14721;42.668;23.386;2023-04-15T10:28:45;94654.47;;;19.25;30.02
27210;BME280;14721;42.668;23.386;2023-04-15T10:31:13;94653.66;;;19.47;29.19
27210;BME280;14721;42.668;23.386;2023-04-15T10:33:43;94649.56;;;19.65;31.13
27210;BME280;14721;42.668;23.386;2023-04-15T10:36:09;94653.72;;;19.39;31.60
27210;BME280;14721;42.668;23.386;2023-04-15T10:38:50;94652.50;;;19.41;30.90
27210;BME280;14721;42.668;23.386;2023-04-15T10:41:23;94640.63;;;19.65;30.99
27210;BME280;14721;42.668;23.386;2023-04-15T10:44:01;94632.59;;;19.34;30.76
27210;BME280;14721;42.668;23.386;2023-04-15T10:46:41;94637.44;;;19.02;30.70
27210;BME280;14721;42.668;23.386;2023-04-15T10:49:11;94652.81;;;19.01;31.72
27210;BME280;14721;42.668;23.386;2023-04-15T10:51:39;94645.53;;;19.24;32.31
27210;BME280;14721;42.668;23.386;2023-04-15T10:54:14;94640.66;;;19.42;31.27
27210;BME280;14721;42.668;23.386;2023-04-15T10:56:41;94631.09;;;19.32;31.41
27210;BME280;14721;42.668;23.386;2023-04-15T10:59:08;94643.00;;;19.45;31.39
27210;BME280;14721;42.668;23.386;2023-04-15T11:02:11;94645.84;;;19.95;30.78
27210;BME280;14721;42.668;23.386;2023-04-15T11:04:58;94638.66;;;19.88;29.73
27210;BME280;14721;42.668;23.386;2023-04-15T11:18:20;94637.22;;;19.48;30.95
27210;BME280;14721;42.668;23.386;2023-04-15T11:23:19;94637.97;;;19.42;31.22
27210;BME280;14721;42.668;23.386;2023-04-15T11:25:53;94633.09;;;19.52;31.21
27210;BME280;14721;42.668;23.386;2023-04-15T11:28:19;94621.75;;;19.86;30.81
27210;BME280;14721;42.668;23.386;2023-04-15T11:30:44;94631.84;;;20.21;30.40
27210;BME280;14721;42.668;23.386;2023-04-15T11:33:10;94623.06;;;20.33;29.74
27210;BME280;14721;42.668;23.386;2023-04-15T11:35:36;94622.22;;;20.33;28.71
27210;BME280;14721;42.668;23.386;2023-04-15T11:38:12;94615.59;;;20.35;28.75
27210;BME280;14721;42.668;23.386;2023-04-15T11:40:39;94626.38;;;20.14;29.14
27210;BME280;14721;42.668;23.386;2023-04-15T11:43:19;94632.94;;;20.12;29.59
27210;BME280;14721;42.668;23.386;2023-04-15T11:48:13;94611.09;;;19.84;29.86
27210;BME280;14721;42.668;23.386;2023-04-15T11:50:39;94620.63;;;19.95;29.94
27210;BME280;14721;42.668;23.386;2023-04-15T11:53:07;94620.91;;;19.71;29.55
27210;BME280;14721;42.668;23.386;2023-04-15T11:55:47;94612.41;;;19.74;30.61
27210;BME280;14721;42.668;23.386;2023-04-15T11:58:14;94602.28;;;19.97;29.63
27210;BME280;14721;42.668;23.386;2023-04-15T12:00:41;94611.66;;;20.23;29.39
27210;BME280;14721;42.668;23.386;2023-04-15T12:03:17;94609.41;;;20.27;29.15
27210;BME280;14721;42.668;23.386;2023-04-15T12:06:21;94607.38;;;20.14;29.37
27210;BME280;14721;42.668;23.386;2023-04-15T12:08:48;94609.78;;;20.24;29.12
27210;BME280;14721;42.668;23.386;2023-04-15T12:11:15;94609.59;;;20.11;29.18
27210;BME280;14721;42.668;23.386;2023-04-15T12:13:49;94616.22;;;19.94;29.31
27210;BME280;14721;42.668;23.386;2023-04-15T12:16:21;94616.16;;;19.87;30.24
27210;BME280;14721;42.668;23.386;2023-04-15T12:18:53;94617.16;;;20.01;29.40
27210;BME280;14721;42.668;23.386;2023-04-15T12:21:32;94610.81;;;20.23;29.27
27210;BME280;14721;42.668;23.386;2023-04-15T12:24:01;94600.94;;;20.51;28.68
27210;BME280;14721;42.668;23.386;2023-04-15T12:26:41;94605.75;;;20.91;28.61
27210;BME280;14721;42.668;23.386;2023-04-15T12:29:07;94610.28;;;20.84;26.92
27210;BME280;14721;42.668;23.386;2023-04-15T12:31:34;94605.78;;;20.20;27.38
27210;BME280;14721;42.668;23.386;2023-04-15T12:34:05;94600.34;;;20.20;28.56
27210;BME280;14721;42.668;23.386;2023-04-15T12:36:31;94609.69;;;20.32;27.50
27210;BME280;14721;42.668;23.386;2023-04-15T12:39:02;94601.63;;;20.38;27.28
27210;BME280;14721;42.668;23.386;2023-04-15T12:41:28;94602.66;;;20.37;27.42
27210;BME280;14721;42.668;23.386;2023-04-15T12:43:53;94613.56;;;20.80;26.53
27210;BME280;14721;42.668;23.386;2023-04-15T12:46:19;94600.44;;;20.98;26.96
27210;BME280;14721;42.668;23.386;2023-04-15T12:48:46;94606.06;;;21.17;26.01
27210;BME280;14721;42.668;23.386;2023-04-15T12:51:12;94616.38;;;21.49;25.65
27210;BME280;14721;42.668;23.386;2023-04-15T12:53:38;94612.88;;;21.76;25.63
27210;BME280;14721;42.668;23.386;2023-04-15T12:56:04;94608.75;;;21.38;24.67
27210;BME280;14721;42.668;23.386;2023-04-15T12:58:30;94601.78;;;21.29;25.50
27210;BME280;14721;42.668;23.386;2023-04-15T13:00:56;94609.28;;;21.06;26.35
27210;BME280;14721;42.668;23.386;2023-04-15T13:03:21;94612.28;;;20.76;26.21
27210;BME280;14721;42.668;23.386;2023-04-15T13:05:47;94614.44;;;20.80;26.68
27210;BME280;14721;42.668;23.386;2023-04-15T13:08:13;94608.03;;;20.88;26.09
27210;BME280;14721;42.668;23.386;2023-04-15T13:10:38;94603.03;;;20.91;26.08
27210;BME280;14721;42.668;23.386;2023-04-15T13:13:04;94614.31;;;21.09;25.94